Friday, January 18, 2019, 11:15 PM EST
Back to Local

KAQW, N Adams Harriman-and-west

Location: North Adams, MA, United States Lat: 42.7
Local Time: 11:15 PM EST ( 4:15 GMT) Lon: -73.167
Time Zone: US/Eastern Elev: 652 ft

Show me the last for .
Show Decoded

2019-01-18 23:00 METAR KAQW 190400Z AUTO 27010KT 10SM BKN025 OVC047 M01/M05 A3010 RMK AO2
                 T10061050 =
2019-01-18 22:52 METAR KAQW 190352Z AUTO 28007G19KT 10SM SCT025 BKN030 OVC045 M01/M05 A3010 RMK
                 AO2 SLP201 T10061050 =
2019-01-18 21:52 METAR KAQW 190252Z AUTO 27013KT 10SM OVC046 M01/M06 A3009 RMK AO2 SLP198
                 T10061061 51013 =
2019-01-18 20:52 METAR KAQW 190152Z AUTO 27014G21KT 10SM OVC044 00/M06 A3008 RMK AO2 SLP194
                 T00001061 =
2019-01-18 19:52 METAR KAQW 190052Z AUTO 27014G20KT 10SM FEW033 OVC043 00/M05 A3006 RMK AO2
                 SLP190 T00001050 =
2019-01-18 19:40 METAR KAQW 190040Z AUTO 28011G23KT 10SM FEW023 SCT029 OVC042 00/M04 A3006 RMK
                 AO2 T00001044 =
2019-01-18 18:52 METAR KAQW 182352Z AUTO 29010G17KT 10SM OVC021 01/M03 A3005 RMK AO2 SLP184 60000
                 T00061028 10011 21011 53017 =
2019-01-18 17:52 METAR KAQW 182252Z AUTO 27008KT 10SM OVC023 01/M03 A3002 RMK AO2 SLP174
                 T00061028 =
2019-01-18 16:52 METAR KAQW 182152Z AUTO 28007KT 10SM OVC026 01/M03 A3001 RMK AO2 SLP169
                 T00061028 =
2019-01-18 16:24 METAR KAQW 182124Z AUTO 28007KT 10SM OVC028 01/M03 A3001 RMK AO2 T00061028 =
2019-01-18 15:52 METAR KAQW 182052Z AUTO 27007KT 10SM OVC031 01/M03 A3000 RMK AO2 SLP167 60000
                 T00061028 53003 =
2019-01-18 15:30 METAR KAQW 182030Z AUTO 25007KT 10SM SCT021 BKN031 OVC041 01/M03 A2999 RMK AO2
                 T00061028 =
2019-01-18 14:52 METAR KAQW 181952Z AUTO 00000KT 10SM OVC021 M01/M03 A2998 RMK AO2 SNB05E34
                 SLP162 P0000 T10061033 =
2019-01-18 13:52 METAR KAQW 181852Z AUTO VRB04KT 8SM OVC020 M01/M03 A2998 RMK AO2 SNE1759B37E52
                 SLP160 P0000 T10061033 =
2019-01-18 12:52 METAR KAQW 181752Z AUTO VRB04KT 9SM -SN OVC022 M01/M04 A2999 RMK AO2 SNB39
                 SLP166 P0000 60000 T10061044 11006 21044 58027 =
2019-01-18 11:52 METAR KAQW 181652Z AUTO VRB03KT 10SM BKN022 BKN029 OVC036 M01/M04 A3002 RMK AO2
                 SNE01 SLP176 P0000 T10111044 =
2019-01-18 10:52 METAR KAQW 181552Z AUTO 07005KT 9SM -SN BKN023 OVC030 M02/M05 A3005 RMK AO2
                 SNB43 SLP187 P0000 T10171050 =
2019-01-18 09:52 METAR KAQW 181452Z AUTO 07004KT 10SM OVC024 M02/M06 A3007 RMK AO2 SLP193
                 T10221056 56004 =
2019-01-18 08:52 METAR KAQW 181352Z AUTO 10009KT 10SM OVC025 M03/M07 A3007 RMK AO2 SLP194
                 T10331067 =
2019-01-18 08:24 METAR KAQW 181324Z AUTO VRB04KT 10SM OVC028 M03/M07 A3007 RMK AO2 T10331067 =
2019-01-18 07:52 METAR KAQW 181252Z AUTO 08006KT 10SM OVC031 M03/M07 A3007 RMK AO2 SLP194
                 T10331067 =
2019-01-18 07:20 METAR KAQW 181220Z AUTO 10006KT 10SM OVC029 M04/M07 A3007 RMK AO2 T10391072 =
2019-01-18 06:52 METAR KAQW 181152Z AUTO 10006KT 10SM OVC031 M04/M08 A3009 RMK AO2 SLP200 60000
                 7//// T10441078 11044 21061 55011 =
2019-01-18 05:52 METAR KAQW 181052Z AUTO 09006KT 10SM OVC042 M04/M08 A3008 RMK AO2 SLP196
                 T10441083 =
2019-01-18 04:52 METAR KAQW 180952Z AUTO 08006KT 10SM OVC047 M05/M08 A3009 RMK AO2 SNE29 SLP199
                 P0000 T10501083 =
2019-01-18 03:52 METAR KAQW 180852Z AUTO 08007KT 020V120 5SM -SN OVC045 M06/M09 A3012 RMK AO2
                 SLP210 P0000 60000 T10561089 58021 =
2019-01-18 02:52 METAR KAQW 180752Z AUTO VRB04KT 5SM -SN OVC055 M06/M09 A3016 RMK AO2 SLP225
                 P0000 T10561089 =
2019-01-18 01:52 METAR KAQW 180652Z AUTO 12006KT 4SM -SN OVC034 M06/M09 A3019 RMK AO2 SNB10
                 SLP234 P0000 T10611089 =
2019-01-18 00:52 METAR KAQW 180552Z AUTO 00000KT 10SM OVC046 M05/M16 A3018 RMK AO2 SLP233
                 T10501156 11044 21078 56019 =
2019-01-17 23:52 METAR KAQW 180452Z AUTO VRB06G15KT 10SM BKN070 OVC090 M05/M18 A3019 RMK AO2
                 SLP236 T10501178 410441150 =

Support USWX by starting your Amazon purchase here.